Time;durP1;ratioP1;P1;durP2;ratioP2;P2;SDS_P1;SDS_P2;PMS_P1;PMS_P2;Temp;Humidity;BMP_temperature;BMP_pressure;BME280_temperature;BME280_humidity;BME280_pressure;Samples;Min_cycle;Max_cycle;Signal;HPM_P1;HPM_P2
2021/06/18 00:02:14;;;;;;;16.75;9.63;;;;;;;21.90;78.24;99430.93;4297564;82;28522;-84
2021/06/18 00:08:16;;;;;;;15.50;8.13;;;;;;;22.05;76.03;99427.14;4319541;81;28464;-83
2021/06/18 00:14:17;;;;;;;12.23;8.95;;;;;;;22.14;74.84;99423.19;4320030;82;28467;-84
2021/06/18 00:20:19;;;;;;;15.28;8.50;;;;;;;21.68;80.57;99422.77;4361228;80;28494;-84
2021/06/18 00:26:21;;;;;;;17.07;9.33;;;;;;;21.92;79.44;99425.17;4389182;81;28433;-83
2021/06/18 00:32:22;;;;;;;13.10;8.98;;;;;;;21.68;81.87;99420.03;4367184;81;28511;-84
2021/06/18 00:38:24;;;;;;;13.80;9.33;;;;;;;21.78;80.75;99421.00;4470294;78;28462;-83
2021/06/18 00:44:25;;;;;;;12.95;9.28;;;;;;;21.58;80.60;99422.34;4412290;80;28481;-83
2021/06/18 00:50:29;;;;;;;14.60;10.10;;;;;;;21.45;83.21;99417.05;4378994;80;28501;-84
2021/06/18 00:56:31;;;;;;;16.55;9.88;;;;;;;21.49;83.54;99421.92;4373143;80;28472;-83
2021/06/18 01:02:32;;;;;;;13.83;9.20;;;;;;;21.25;84.68;99414.59;4358462;80;28438;-85
2021/06/18 01:08:45;;;;;;;13.25;9.53;;;;;;;21.61;78.80;99411.38;4385928;80;28446;-85
2021/06/18 01:15:10;;;;;;;14.20;9.98;;;;;;;21.32;80.86;99397.27;4395950;78;28471;-84
2021/06/18 01:21:26;;;;;;;13.75;9.20;;;;;;;21.16;83.97;99399.40;4465980;79;28510;-85
2021/06/18 01:27:44;;;;;;;17.15;9.68;;;;;;;21.08;84.04;99389.11;4458769;79;28459;-86
2021/06/18 01:33:50;;;;;;;14.35;9.10;;;;;;;20.97;85.03;99386.50;4425805;79;28507;-85
2021/06/18 01:39:53;;;;;;;14.18;9.15;;;;;;;21.06;85.40;99385.86;4420321;78;28497;-86
2021/06/18 01:45:56;;;;;;;11.85;8.73;;;;;;;21.04;84.81;99386.14;4467803;79;28464;-87
2021/06/18 01:52:01;;;;;;;14.65;9.25;;;;;;;20.99;84.47;99397.16;4407262;79;28536;-84
2021/06/18 01:58:06;;;;;;;17.40;10.23;;;;;;;20.62;89.10;99399.45;4344871;80;28515;-84
2021/06/18 02:04:13;;;;;;;19.67;10.45;;;;;;;20.52;89.73;99404.45;4321738;80;28488;-84
2021/06/18 02:10:14;;;;;;;16.02;9.90;;;;;;;20.68;88.01;99400.20;4444410;79;28475;-83
2021/06/18 02:16:17;;;;;;;16.50;9.93;;;;;;;20.92;83.06;99409.78;4427601;79;28545;-83
2021/06/18 02:22:20;;;;;;;15.25;10.00;;;;;;;21.01;83.42;99413.50;4350717;80;28484;-82
2021/06/18 02:28:22;;;;;;;16.48;10.58;;;;;;;20.63;88.44;99416.09;4366579;80;28440;-83
2021/06/18 02:34:23;;;;;;;14.53;9.70;;;;;;;20.51;90.65;99422.48;4362483;80;28467;-82
2021/06/18 02:40:25;;;;;;;15.30;9.98;;;;;;;20.50;89.85;99410.75;4394638;79;28530;-83
2021/06/18 02:47:13;;;;;;;17.82;10.32;;;;;;;20.60;88.86;99411.19;4322637;81;28498;-85
2021/06/18 02:53:28;;;;;;;16.87;9.93;;;;;;;20.34;90.42;99410.09;4385776;79;28479;-83
2021/06/18 02:59:53;;;;;;;16.12;10.05;;;;;;;20.52;90.55;99416.73;4418114;79;28539;-82
2021/06/18 03:05:59;;;;;;;14.07;9.75;;;;;;;20.84;85.54;99416.70;4333874;79;28496;-81
2021/06/18 03:12:03;;;;;;;17.10;11.17;;;;;;;20.97;83.87;99426.12;4373562;79;28550;-81
2021/06/18 03:18:06;;;;;;;16.50;10.08;;;;;;;20.68;86.88;99422.86;4380051;80;28543;-82
2021/06/18 03:24:09;;;;;;;18.67;11.38;;;;;;;20.98;83.94;99425.56;4347088;80;28479;-82
2021/06/18 03:30:12;;;;;;;15.70;10.48;;;;;;;20.95;84.79;99434.35;4390486;80;28434;-82
2021/06/18 03:36:16;;;;;;;17.70;9.90;;;;;;;21.17;81.92;99433.26;4365592;79;28477;-82
2021/06/18 03:42:17;;;;;;;16.82;9.53;;;;;;;21.62;78.63;99433.52;4425615;79;28500;-81
2021/06/18 03:48:20;;;;;;;15.58;10.00;;;;;;;22.04;75.28;99432.94;4376646;79;28452;-81
2021/06/18 03:54:23;;;;;;;15.93;9.83;;;;;;;22.17;73.76;99443.11;4346158;79;28469;-82
2021/06/18 04:00:25;;;;;;;16.20;10.35;;;;;;;22.18;74.06;99439.80;4366933;79;28499;-82
2021/06/18 04:06:28;;;;;;;14.18;9.68;;;;;;;22.18;74.36;99442.54;4359918;79;28476;-82
2021/06/18 04:12:30;;;;;;;15.85;9.03;;;;;;;22.29;73.88;99430.33;4387910;80;28572;-81
2021/06/18 04:18:34;;;;;;;16.90;9.98;;;;;;;22.36;73.54;99441.69;4384424;79;28495;-82
2021/06/18 04:24:35;;;;;;;15.48;10.38;;;;;;;22.79;71.78;99442.60;4385761;79;28456;-82
2021/06/18 04:30:36;;;;;;;16.25;10.53;;;;;;;22.80;71.34;99440.12;4353809;80;28451;-82
2021/06/18 04:36:38;;;;;;;17.82;10.65;;;;;;;22.86;70.37;99440.83;4399677;79;28461;-83
2021/06/18 04:42:40;;;;;;;15.55;10.23;;;;;;;23.28;68.97;99452.66;4390783;79;28534;-82
2021/06/18 04:48:41;;;;;;;19.17;10.65;;;;;;;23.66;66.81;99457.06;4374015;79;28515;-82
2021/06/18 04:54:45;;;;;;;18.65;11.65;;;;;;;23.78;66.19;99450.47;4374264;79;28460;-83
2021/06/18 05:00:46;;;;;;;18.27;10.08;;;;;;;23.60;67.20;99453.63;4366477;79;28486;-82
2021/06/18 05:06:47;;;;;;;11.70;8.58;;;;;;;23.73;65.35;99449.20;4391491;79;28482;-80
2021/06/18 05:12:49;;;;;;;15.65;9.25;;;;;;;24.13;63.45;99443.09;4369109;79;28419;-82
2021/06/18 05:18:51;;;;;;;14.60;10.43;;;;;;;24.32;62.74;99453.88;4395196;80;28547;-82
2021/06/18 05:24:52;;;;;;;13.40;8.65;;;;;;;24.16;63.07;99445.76;4376855;80;28490;-81
2021/06/18 05:30:53;;;;;;;16.45;9.48;;;;;;;24.26;62.98;99448.25;4348393;80;28532;-82
2021/06/18 05:36:54;;;;;;;10.50;8.03;;;;;;;24.41;62.39;99451.75;4383241;79;28459;-81
2021/06/18 05:42:56;;;;;;;13.05;8.38;;;;;;;24.62;61.23;99444.59;4368171;80;28517;-82
2021/06/18 05:48:58;;;;;;;12.15;7.80;;;;;;;24.78;61.30;99446.95;4335612;80;28484;-81
2021/06/18 05:55:00;;;;;;;15.08;8.13;;;;;;;24.97;60.74;99442.59;4351791;80;28484;-81
2021/06/18 06:01:01;;;;;;;20.52;9.03;;;;;;;24.84;59.71;99449.02;4372032;80;28530;-81
2021/06/18 06:07:03;;;;;;;16.50;8.55;;;;;;;24.97;59.50;99443.97;4373980;79;28485;-81
2021/06/18 06:13:06;;;;;;;17.12;8.25;;;;;;;24.67;61.93;99438.16;4353510;79;28434;-83
2021/06/18 06:19:08;;;;;;;13.43;7.62;;;;;;;25.38;61.32;99441.17;4351606;79;28491;-82
2021/06/18 06:25:11;;;;;;;11.10;7.22;;;;;;;25.32;59.47;99442.68;4344728;81;28486;-82
2021/06/18 06:31:13;;;;;;;12.75;7.33;;;;;;;25.55;59.63;99448.08;4377548;79;28484;-85
2021/06/18 06:37:14;;;;;;;14.18;7.75;;;;;;;25.82;57.96;99442.59;4410507;80;28477;-82
2021/06/18 06:43:17;;;;;;;12.93;7.58;;;;;;;26.31;56.02;99440.47;4372685;80;28528;-82
2021/06/18 06:49:18;;;;;;;17.40;7.10;;;;;;;26.17;56.77;99440.62;4374683;79;28482;-82
2021/06/18 06:55:20;;;;;;;12.85;7.72;;;;;;;26.31;55.37;99445.19;4411985;79;28449;-82
2021/06/18 07:01:22;;;;;;;13.08;7.50;;;;;;;26.43;55.93;99434.30;4413519;79;28503;-83
2021/06/18 07:07:23;;;;;;;13.90;7.10;;;;;;;26.49;55.96;99439.62;4365403;80;28460;-82
2021/06/18 07:13:25;;;;;;;14.68;7.87;;;;;;;26.51;56.36;99435.98;4401482;80;28491;-83
2021/06/18 07:19:26;;;;;;;13.80;7.67;;;;;;;26.89;56.09;99434.41;4371651;79;28495;-85
2021/06/18 07:25:27;;;;;;;15.03;7.70;;;;;;;27.03;54.66;99442.46;4408771;81;28475;-85
2021/06/18 07:31:30;;;;;;;14.55;7.92;;;;;;;27.11;55.19;99435.51;4367818;81;28467;-81
2021/06/18 07:37:32;;;;;;;15.40;7.75;;;;;;;27.42;53.96;99437.66;4357444;79;28469;-80
2021/06/18 07:43:33;;;;;;;19.02;9.38;;;;;;;27.51;54.45;99423.82;4376776;79;28526;-81
2021/06/18 07:49:34;;;;;;;14.00;7.45;;;;;;;27.48;54.28;99424.47;4393190;79;28475;-80
2021/06/18 07:55:36;;;;;;;15.88;7.95;;;;;;;27.71;54.06;99413.94;4381353;79;28456;-80
2021/06/18 08:01:38;;;;;;;16.60;8.13;;;;;;;27.86;54.97;99411.12;4394359;79;28493;-83
2021/06/18 08:07:42;;;;;;;17.65;7.42;;;;;;;27.83;54.27;99405.70;4375397;80;28509;-80
2021/06/18 08:13:43;;;;;;;18.77;7.95;;;;;;;28.14;53.67;99410.55;4384253;79;28593;-80
2021/06/18 08:19:45;;;;;;;13.88;8.13;;;;;;;28.21;53.42;99409.42;4377980;79;28499;-83
2021/06/18 08:25:48;;;;;;;11.90;6.78;;;;;;;28.45;52.76;99407.06;4365448;80;28446;-84
2021/06/18 08:31:50;;;;;;;11.70;6.90;;;;;;;28.80;51.29;99399.14;4404142;79;28487;-84
2021/06/18 08:37:51;;;;;;;10.50;6.60;;;;;;;28.63;50.80;99398.80;4373623;79;28507;-83
2021/06/18 08:43:52;;;;;;;13.18;7.10;;;;;;;28.98;48.67;99386.49;4365636;80;28455;-82
2021/06/18 08:49:54;;;;;;;13.68;7.37;;;;;;;28.98;49.08;99398.13;4395400;79;28530;-83
2021/06/18 08:55:55;;;;;;;15.40;7.58;;;;;;;28.90;47.35;99388.23;4388282;79;28578;-85
2021/06/18 09:01:56;;;;;;;8.05;5.92;;;;;;;28.91;46.98;99380.73;4389995;79;28468;-81
2021/06/18 09:08:04;;;;;;;9.30;5.80;;;;;;;29.53;47.79;99377.08;4402887;79;28440;-81
2021/06/18 09:14:19;;;;;;;10.68;5.55;;;;;;;29.63;45.47;99385.67;4405540;78;28489;-82
2021/06/18 09:20:25;;;;;;;8.53;5.27;;;;;;;29.41;42.47;99372.34;4388246;79;28572;-82
2021/06/18 09:26:29;;;;;;;;;;;;;;;29.54;40.28;99368.99;4259052;81;28455;-82
2021/06/18 09:32:31;;;;;;;8.83;4.37;;;;;;;29.76;37.61;99364.84;4253558;82;20242;-86
2021/06/18 09:38:53;;;;;;;6.75;4.87;;;;;;;30.08;39.36;99364.94;4315296;81;28456;-87
2021/06/18 09:45:02;;;;;;;7.25;4.50;;;;;;;29.72;37.29;99366.72;4312271;81;28536;-87
2021/06/18 09:51:04;;;;;;;7.83;4.45;;;;;;;30.07;38.68;99358.39;4275001;81;28505;-87
2021/06/18 09:57:14;;;;;;;6.12;4.10;;;;;;;30.39;39.44;99362.57;4292805;81;28458;-87
2021/06/18 10:03:16;;;;;;;6.62;4.70;;;;;;;30.41;37.64;99361.63;4285395;81;28496;-90
2021/06/18 10:09:17;;;;;;;8.75;5.00;;;;;;;30.07;37.96;99357.79;4279163;81;28448;-84
2021/06/18 10:15:22;;;;;;;7.72;4.50;;;;;;;30.16;37.60;99357.64;4287199;81;28518;-84
2021/06/18 10:21:25;;;;;;;7.87;5.00;;;;;;;30.51;37.36;99347.78;4319291;78;28472;-86
2021/06/18 10:27:48;;;;;;;6.97;4.87;;;;;;;30.07;37.46;99357.79;4424767;78;28451;-84
2021/06/18 10:34:03;;;;;;;7.25;5.05;;;;;;;30.22;37.56;99346.50;4318535;81;28520;-83
2021/06/18 10:40:10;;;;;;;7.47;4.10;;;;;;;30.18;37.65;99344.22;4326483;80;28469;-86
2021/06/18 10:46:24;;;;;;;8.80;5.12;;;;;;;30.84;37.24;99329.98;4330122;80;28521;-84
2021/06/18 10:52:33;;;;;;;9.70;4.78;;;;;;;30.16;38.01;99340.41;4366407;80;28474;-86
2021/06/18 10:59:05;;;;;;;6.75;4.62;;;;;;;30.44;37.20;99332.59;4348998;80;28427;-87
2021/06/18 11:05:30;;;;;;;6.20;4.42;;;;;;;30.66;36.67;99324.81;4425482;78;28491;-85
2021/06/18 11:11:32;;;;;;;7.15;4.20;;;;;;;30.82;36.09;99317.84;4393644;78;28459;-85
2021/06/18 11:18:02;;;;;;;4.95;4.12;;;;;;;31.08;37.06;99315.63;4403828;78;28457;-85
2021/06/18 11:24:04;;;;;;;6.53;4.22;;;;;;;30.41;34.39;99318.06;4426298;78;28508;-86
2021/06/18 11:30:30;;;;;;;4.85;4.08;;;;;;;30.97;35.02;99303.70;4414019;79;28502;-85
2021/06/18 11:36:41;;;;;;;7.40;4.50;;;;;;;31.37;35.48;99305.15;4414948;78;28452;-85
2021/06/18 11:42:44;;;;;;;5.50;4.05;;;;;;;30.95;34.87;99291.34;4433767;78;28446;-85
2021/06/18 11:48:45;;;;;;;5.75;3.98;;;;;;;31.52;36.24;99292.34;4405341;78;28443;-83
2021/06/18 11:54:47;;;;;;;7.55;5.00;;;;;;;31.50;36.65;99288.53;4416988;78;28510;-85
2021/06/18 12:00:48;;;;;;;8.00;5.05;;;;;;;31.60;35.82;99284.95;4348964;80;28487;-84
2021/06/18 12:06:50;;;;;;;5.12;4.47;;;;;;;31.59;36.84;99279.96;4327692;80;28460;-86
2021/06/18 12:12:53;;;;;;;5.90;5.10;;;;;;;31.68;34.93;99288.08;4354278;80;28426;-87
2021/06/18 12:18:57;;;;;;;7.70;4.80;;;;;;;30.97;34.59;99289.00;4403772;78;28485;-87
2021/06/18 12:24:59;;;;;;;6.28;4.70;;;;;;;31.13;34.75;99286.17;4323279;80;28518;-85
2021/06/18 12:31:01;;;;;;;6.00;4.80;;;;;;;31.60;34.77;99274.63;4262670;81;28545;-84
2021/06/18 12:37:07;;;;;;;6.55;4.00;;;;;;;31.50;34.42;99263.53;4268786;81;28516;-83
2021/06/18 12:43:12;;;;;;;6.67;4.03;;;;;;;31.67;33.74;99262.25;4259988;81;28502;-84
2021/06/18 12:49:13;;;;;;;6.53;3.60;;;;;;;32.00;34.01;99262.86;4273428;81;28566;-84
2021/06/18 12:55:15;;;;;;;5.00;3.35;;;;;;;31.94;33.47;99260.16;4270741;81;28543;-84
2021/06/18 13:01:27;;;;;;;6.33;4.03;;;;;;;32.14;32.83;99251.17;4295317;80;28463;-82
2021/06/18 13:07:36;;;;;;;5.22;3.83;;;;;;;31.82;33.09;99244.50;4284016;81;28496;-84
2021/06/18 13:13:38;;;;;;;4.87;3.62;;;;;;;32.06;33.88;99242.50;4298986;81;28607;-81
2021/06/18 13:19:50;;;;;;;7.03;4.35;;;;;;;32.08;31.94;99234.58;4307446;81;28536;-81
2021/06/18 13:26:10;;;;;;;4.62;3.98;;;;;;;31.97;31.80;99233.00;4320286;80;28464;-81
2021/06/18 13:32:12;;;;;;;6.37;4.00;;;;;;;31.68;31.67;99238.85;4331876;80;28567;-82
2021/06/18 13:38:15;;;;;;;5.70;4.35;;;;;;;31.93;32.58;99239.92;4318055;80;28459;-82
2021/06/18 13:44:16;;;;;;;5.12;3.90;;;;;;;32.26;31.26;99225.13;4335016;80;28554;-84
2021/06/18 13:50:18;;;;;;;5.22;4.15;;;;;;;32.35;32.20;99222.09;4349730;80;28463;-84
2021/06/18 13:56:21;;;;;;;7.90;4.08;;;;;;;32.56;31.96;99234.73;4359488;80;28448;-83
2021/06/18 14:02:22;;;;;;;5.97;4.17;;;;;;;32.67;31.72;99218.98;4347942;80;28492;-82
2021/06/18 14:08:24;;;;;;;4.05;3.52;;;;;;;32.25;32.31;99219.34;4368344;80;28891;-82
2021/06/18 14:14:25;;;;;;;4.22;3.80;;;;;;;32.69;32.44;99210.45;4359146;80;28480;-81
2021/06/18 14:20:27;;;;;;;4.65;3.67;;;;;;;32.66;32.85;99208.44;4373581;80;28501;-82
2021/06/18 14:26:28;;;;;;;4.12;3.52;;;;;;;32.87;33.52;99209.10;4367009;80;28529;-83
2021/06/18 14:32:30;;;;;;;4.15;3.70;;;;;;;32.63;34.16;99201.42;4348630;80;28549;-83
2021/06/18 14:38:31;;;;;;;8.18;4.15;;;;;;;32.79;32.52;99194.27;4351630;80;28490;-82
2021/06/18 14:44:33;;;;;;;4.87;4.03;;;;;;;32.90;33.35;99191.63;4265977;82;28462;-84
2021/06/18 14:50:35;;;;;;;4.35;3.80;;;;;;;32.75;32.26;99194.25;4340540;80;28473;-83
2021/06/18 14:56:38;;;;;;;4.45;3.80;;;;;;;32.81;32.03;99189.94;4287373;81;28507;-83
2021/06/18 15:02:39;;;;;;;5.12;3.65;;;;;;;32.65;33.42;99193.52;4352215;80;28517;-83
2021/06/18 15:08:40;;;;;;;6.60;3.85;;;;;;;32.98;32.61;99193.94;4355695;80;28433;-83
2021/06/18 15:14:42;;;;;;;5.62;3.62;;;;;;;33.04;31.98;99187.64;4255730;81;28457;-86
2021/06/18 15:20:46;;;;;;;6.65;4.30;;;;;;;33.03;32.63;99186.05;4330339;80;28478;-87
2021/06/18 15:26:46;;;;;;;5.45;4.30;;;;;;;32.72;32.58;99180.28;4371901;80;28485;-88
2021/06/18 15:32:48;;;;;;;5.22;4.10;;;;;;;33.06;32.59;99171.38;4346509;80;28489;-86
2021/06/18 15:38:49;;;;;;;5.55;4.12;;;;;;;33.01;32.35;99173.09;4324693;81;28548;-88
2021/06/18 15:44:51;;;;;;;5.15;3.77;;;;;;;32.87;33.44;99172.91;4321992;81;28460;-87
2021/06/18 15:50:53;;;;;;;4.58;4.00;;;;;;;33.12;33.41;99169.63;4361833;79;28523;-85
2021/06/18 15:56:54;;;;;;;5.45;3.90;;;;;;;32.79;33.15;99165.05;4407355;78;28475;-83
2021/06/18 16:02:55;;;;;;;4.83;3.58;;;;;;;32.78;33.36;99156.48;4369624;80;28609;-85
2021/06/18 16:08:57;;;;;;;5.92;3.65;;;;;;;32.50;31.77;99148.80;4329155;80;28545;-85
2021/06/18 16:14:58;;;;;;;5.60;3.87;;;;;;;32.94;32.40;99144.59;4321284;80;28484;-84
2021/06/18 16:21:00;;;;;;;4.72;3.37;;;;;;;33.06;32.36;99145.50;4330510;80;28505;-84
2021/06/18 16:27:05;;;;;;;6.70;3.20;;;;;;;33.06;32.67;99128.80;4345578;80;28464;-86
2021/06/18 16:33:06;;;;;;;5.20;3.50;;;;;;;32.98;32.93;99134.89;4345046;80;28465;-85
2021/06/18 16:39:08;;;;;;;3.77;3.08;;;;;;;33.14;32.53;99132.45;4347328;80;28496;-82
2021/06/18 16:45:10;;;;;;;4.87;3.30;;;;;;;33.57;33.12;99127.29;4345056;80;28600;-86
2021/06/18 16:51:11;;;;;;;8.30;3.00;;;;;;;33.38;33.30;99122.15;4351276;80;28456;-84
2021/06/18 16:57:14;;;;;;;4.95;3.10;;;;;;;33.56;33.35;99131.87;4350225;80;28499;-86
2021/06/18 17:03:16;;;;;;;5.40;3.20;;;;;;;34.34;32.67;99132.81;4233386;81;28488;-87
2021/06/18 17:09:17;;;;;;;5.33;3.00;;;;;;;34.54;32.38;99133.94;4334639;80;28477;-88
2021/06/18 17:15:21;;;;;;;5.78;3.00;;;;;;;34.94;32.37;99133.47;4415746;80;28508;-88
2021/06/18 17:21:25;;;;;;;5.28;2.77;;;;;;;35.33;32.11;99136.73;4426332;80;28493;-88
2021/06/18 17:27:26;;;;;;;10.88;2.90;;;;;;;35.22;31.42;99136.12;4459482;80;28452;-88
2021/06/18 17:33:29;;;;;;;3.77;2.90;;;;;;;35.51;32.01;99140.94;4412335;78;28547;-87
2021/06/18 17:39:30;;;;;;;4.75;2.72;;;;;;;35.37;32.17;99116.60;4434512;78;28483;-87
2021/06/18 17:45:32;;;;;;;3.58;2.65;;;;;;;35.37;32.17;99116.60;4414406;78;28496;-86
2021/06/18 17:51:33;;;;;;;6.50;2.60;;;;;;;35.78;31.98;99134.39;4412892;78;28446;-87
2021/06/18 17:57:35;;;;;;;5.70;3.35;;;;;;;35.87;31.87;99132.57;4423755;78;28484;-87
2021/06/18 18:03:36;;;;;;;7.83;3.05;;;;;;;35.06;33.06;99142.70;4424795;78;28483;-86
2021/06/18 18:09:39;;;;;;;5.03;3.10;;;;;;;35.83;32.24;99143.76;4428860;78;28460;-86
2021/06/18 18:15:43;;;;;;;6.78;3.25;;;;;;;35.66;32.47;99141.77;4463427;78;28445;-86
2021/06/18 18:21:46;;;;;;;5.28;3.17;;;;;;;34.33;34.48;99140.98;4442293;78;28552;-85
2021/06/18 18:27:48;;;;;;;4.97;3.17;;;;;;;34.18;34.86;99133.91;4412668;78;28465;-84
2021/06/18 18:33:50;;;;;;;6.85;3.20;;;;;;;33.30;36.58;99147.52;4405382;78;28582;-79
2021/06/18 18:39:52;;;;;;;5.83;3.77;;;;;;;32.74;37.59;99156.44;4421619;78;28448;-90
2021/06/18 18:45:53;;;;;;;7.30;4.05;;;;;;;32.24;38.70;99153.78;4434493;78;28441;-88
2021/06/18 18:51:55;;;;;;;4.65;3.92;;;;;;;31.63;40.54;99171.09;4395545;78;28486;-86
2021/06/18 18:58:02;;;;;;;5.95;3.98;;;;;;;31.34;41.41;99179.49;4417455;78;28467;-89
2021/06/18 19:04:05;;;;;;;5.22;4.20;;;;;;;31.05;42.75;99183.11;4381205;78;28460;-88
2021/06/18 19:10:08;;;;;;;8.03;3.98;;;;;;;30.79;43.65;99179.83;4419870;78;28503;-87
2021/06/18 19:16:10;;;;;;;6.90;5.03;;;;;;;30.78;44.61;99178.23;4419525;78;28454;-83
2021/06/18 19:22:12;;;;;;;7.28;4.37;;;;;;;30.40;45.24;99179.75;4405214;78;28604;-88
2021/06/18 19:28:14;;;;;;;6.95;4.67;;;;;;;30.26;45.65;99185.20;4420421;78;28476;-89
2021/06/18 19:34:16;;;;;;;10.20;5.12;;;;;;;29.97;47.10;99190.04;4391741;78;28485;-85
2021/06/18 19:40:20;;;;;;;6.72;5.67;;;;;;;29.57;47.77;99182.11;4405100;78;28507;-86
2021/06/18 19:46:25;;;;;;;7.10;5.03;;;;;;;29.48;47.93;99186.45;4443050;78;28482;-87
2021/06/18 19:52:27;;;;;;;7.85;5.10;;;;;;;29.56;47.67;99192.97;4413158;78;28554;-89
2021/06/18 19:58:28;;;;;;;8.73;5.85;;;;;;;29.38;47.91;99196.62;4405690;79;28444;-87
2021/06/18 20:04:29;;;;;;;7.10;5.65;;;;;;;29.15;48.24;99208.28;4405260;78;28488;-88
2021/06/18 20:10:33;;;;;;;7.95;5.25;;;;;;;28.89;49.62;99209.52;4406568;78;28503;-90
2021/06/18 20:16:34;;;;;;;7.45;6.17;;;;;;;28.49;51.63;99208.92;4400019;78;28471;-88
2021/06/18 20:22:36;;;;;;;9.65;5.95;;;;;;;28.23;52.33;99218.38;4418071;78;28517;-87
2021/06/18 20:28:38;;;;;;;7.30;6.50;;;;;;;28.42;51.71;99213.63;4335515;80;28479;-91
2021/06/18 20:34:42;;;;;;;8.05;6.30;;;;;;;28.17;53.67;99212.24;4416073;78;28522;-90
2021/06/18 20:40:43;;;;;;;9.83;7.30;;;;;;;27.98;54.54;99221.91;4321755;80;28460;-91
2021/06/18 20:46:44;;;;;;;12.20;8.20;;;;;;;27.79;55.23;99223.84;4415973;78;28498;-86
2021/06/18 20:52:46;;;;;;;10.18;7.78;;;;;;;27.84;54.82;99226.96;4400150;78;28459;-87
2021/06/18 20:58:48;;;;;;;14.23;9.55;;;;;;;27.63;57.59;99227.03;4406617;78;28462;-84
2021/06/18 21:04:52;;;;;;;17.67;10.32;;;;;;;27.25;59.00;99227.46;4417121;78;28481;-85
2021/06/18 21:10:54;;;;;;;15.20;10.13;;;;;;;27.28;58.39;99226.21;4429237;78;28468;-84
2021/06/18 21:16:56;;;;;;;13.93;10.38;;;;;;;27.28;57.99;99225.39;4428511;78;28437;-86
2021/06/18 21:22:58;;;;;;;15.45;10.88;;;;;;;27.22;58.99;99220.66;4409329;78;28507;-84
2021/06/18 21:29:00;;;;;;;13.22;9.80;;;;;;;27.06;59.70;99224.62;4396091;78;28528;-85
2021/06/18 21:35:02;;;;;;;11.63;9.63;;;;;;;26.93;60.06;99225.70;4413655;78;28549;-84
2021/06/18 21:41:03;;;;;;;14.47;9.65;;;;;;;26.67;62.01;99230.25;4422691;78;28449;-84
2021/06/18 21:47:05;;;;;;;13.28;9.18;;;;;;;26.52;62.71;99223.95;4326720;80;28421;-84
2021/06/18 21:53:07;;;;;;;14.78;9.25;;;;;;;26.35;64.26;99225.66;4336399;80;28502;-88
2021/06/18 21:59:08;;;;;;;12.75;9.60;;;;;;;26.18;65.54;99226.53;4380784;78;28496;-88
2021/06/18 22:05:11;;;;;;;16.10;10.70;;;;;;;26.30;64.22;99234.14;4330138;80;28461;-88
2021/06/18 22:11:13;;;;;;;16.32;11.12;;;;;;;26.34;64.55;99231.50;4333645;80;28453;-86
2021/06/18 22:17:15;;;;;;;15.18;10.65;;;;;;;26.33;63.95;99239.53;4413661;78;28535;-85
2021/06/18 22:23:17;;;;;;;16.37;11.10;;;;;;;26.01;66.06;99228.80;4405753;78;28501;-85
2021/06/18 22:29:18;;;;;;;15.03;10.60;;;;;;;25.82;67.52;99235.51;4402473;78;28511;-86
2021/06/18 22:35:21;;;;;;;13.28;10.55;;;;;;;25.70;67.64;99230.67;4404111;78;28466;-86
2021/06/18 22:41:22;;;;;;;11.88;10.00;;;;;;;25.58;69.44;99234.13;4431344;78;28558;-84
2021/06/18 22:47:24;;;;;;;12.68;10.03;;;;;;;25.81;67.81;99224.81;4398749;78;28494;-84
2021/06/18 22:53:27;;;;;;;12.43;9.75;;;;;;;25.40;70.92;99226.42;4413017;78;28460;-85
2021/06/18 22:59:28;;;;;;;13.80;9.45;;;;;;;25.26;70.67;99223.05;4329694;80;28497;-85
2021/06/18 23:05:30;;;;;;;13.05;9.85;;;;;;;25.30;70.43;99215.75;4340282;80;28549;-86
2021/06/18 23:11:31;;;;;;;13.72;9.35;;;;;;;25.26;70.00;99218.92;4329966;80;28524;-87
2021/06/18 23:17:33;;;;;;;13.55;9.18;;;;;;;25.23;70.86;99214.88;4343943;80;28500;-86
2021/06/18 23:23:34;;;;;;;14.07;10.10;;;;;;;25.43;69.33;99213.41;4372744;78;28460;-86
2021/06/18 23:29:35;;;;;;;13.32;10.40;;;;;;;24.51;76.70;99228.31;4272661;81;28455;-85
2021/06/18 23:35:37;;;;;;;16.55;10.23;;;;;;;24.76;73.47;99221.81;4332729;80;28463;-86
2021/06/18 23:41:38;;;;;;;16.07;9.30;;;;;;;24.56;76.21;99221.86;4256770;81;28443;-87
2021/06/18 23:47:40;;;;;;;10.53;9.15;;;;;;;24.38;77.94;99221.59;4340528;80;28480;-87
2021/06/18 23:53:41;;;;;;;11.93;9.33;;;;;;;24.31;77.54;99222.04;4278071;81;28517;-87
2021/06/18 23:59:43;;;;;;;12.58;8.80;;;;;;;24.25;77.79;99226.88;4271004;81;28447;-88
